sensor_id;sensor_type;location;lat;lon;timestamp;pressure;altitude;pressure_sealevel;temperature;humidity
68197;BME280;55019;49.382;11.358;2023-06-22T00:00:49;96798.38;;;18.13;100.00
68197;BME280;55019;49.382;11.358;2023-06-22T00:03:17;96784.72;;;18.11;100.00
68197;BME280;55019;49.382;11.358;2023-06-22T00:05:45;96793.56;;;18.16;100.00
68197;BME280;55019;49.382;11.358;2023-06-22T00:08:11;96794.53;;;18.22;100.00
68197;BME280;55019;49.382;11.358;2023-06-22T00:10:37;96797.59;;;18.12;100.00
68197;BME280;55019;49.382;11.358;2023-06-22T00:13:03;96800.19;;;17.99;100.00
68197;BME280;55019;49.382;11.358;2023-06-22T00:15:29;96802.84;;;17.86;100.00
68197;BME280;55019;49.382;11.358;2023-06-22T00:17:55;96795.41;;;17.70;100.00
68197;BME280;55019;49.382;11.358;2023-06-22T00:20:23;96805.06;;;17.76;100.00
68197;BME280;55019;49.382;11.358;2023-06-22T00:22:57;96799.03;;;17.82;100.00
68197;BME280;55019;49.382;11.358;2023-06-22T00:25:23;96800.81;;;17.88;100.00
68197;BME280;55019;49.382;11.358;2023-06-22T00:27:49;96805.25;;;17.81;100.00
68197;BME280;55019;49.382;11.358;2023-06-22T00:30:16;96807.88;;;17.75;100.00
68197;BME280;55019;49.382;11.358;2023-06-22T00:32:43;96820.94;;;17.68;100.00
68197;BME280;55019;49.382;11.358;2023-06-22T00:35:09;96818.13;;;17.89;100.00
68197;BME280;55019;49.382;11.358;2023-06-22T00:37:39;96814.09;;;17.80;100.00
68197;BME280;55019;49.382;11.358;2023-06-22T00:40:10;96818.91;;;17.77;100.00
68197;BME280;55019;49.382;11.358;2023-06-22T00:42:38;96819.13;;;17.75;100.00
68197;BME280;55019;49.382;11.358;2023-06-22T00:45:05;96814.50;;;17.90;100.00
68197;BME280;55019;49.382;11.358;2023-06-22T00:47:32;96821.56;;;17.70;100.00
68197;BME280;55019;49.382;11.358;2023-06-22T00:49:58;96821.75;;;17.62;100.00
68197;BME280;55019;49.382;11.358;2023-06-22T00:52:26;96813.47;;;17.52;100.00
68197;BME280;55019;49.382;11.358;2023-06-22T00:54:56;96821.72;;;17.49;100.00
68197;BME280;55019;49.382;11.358;2023-06-22T00:57:24;96823.31;;;17.38;100.00
68197;BME280;55019;49.382;11.358;2023-06-22T00:59:54;96821.72;;;17.43;100.00
68197;BME280;55019;49.382;11.358;2023-06-22T01:05:00;96812.69;;;17.45;100.00
68197;BME280;55019;49.382;11.358;2023-06-22T01:07:39;96805.25;;;17.49;100.00
68197;BME280;55019;49.382;11.358;2023-06-22T01:12:43;96813.50;;;17.46;100.00
68197;BME280;55019;49.382;11.358;2023-06-22T01:15:15;96810.88;;;17.46;100.00
68197;BME280;55019;49.382;11.358;2023-06-22T01:17:46;96833.00;;;17.50;100.00
68197;BME280;55019;49.382;11.358;2023-06-22T01:20:15;96830.97;;;17.39;100.00
68197;BME280;55019;49.382;11.358;2023-06-22T01:25:37;96826.50;;;17.27;100.00
68197;BME280;55019;49.382;11.358;2023-06-22T01:30:59;96791.94;;;17.31;100.00
68197;BME280;55019;49.382;11.358;2023-06-22T01:33:35;96787.16;;;17.41;100.00
68197;BME280;55019;49.382;11.358;2023-06-22T01:36:02;96774.69;;;17.37;100.00
68197;BME280;55019;49.382;11.358;2023-06-22T01:38:29;96761.84;;;17.48;100.00
68197;BME280;55019;49.382;11.358;2023-06-22T01:40:57;96769.50;;;17.43;100.00
68197;BME280;55019;49.382;11.358;2023-06-22T01:43:25;96769.91;;;17.40;100.00
68197;BME280;55019;49.382;11.358;2023-06-22T01:45:53;96769.06;;;17.52;100.00
68197;BME280;55019;49.382;11.358;2023-06-22T01:48:19;96779.47;;;17.27;100.00
68197;BME280;55019;49.382;11.358;2023-06-22T01:50:45;96775.69;;;17.36;100.00
68197;BME280;55019;49.382;11.358;2023-06-22T01:53:16;96774.69;;;17.37;100.00
68197;BME280;55019;49.382;11.358;2023-06-22T01:55:42;96771.28;;;17.42;100.00
68197;BME280;55019;49.382;11.358;2023-06-22T01:58:07;96767.06;;;17.48;100.00
68197;BME280;55019;49.382;11.358;2023-06-22T02:00:37;96775.13;;;17.40;100.00
68197;BME280;55019;49.382;11.358;2023-06-22T02:03:08;96772.31;;;17.48;100.00
68197;BME280;55019;49.382;11.358;2023-06-22T02:05:47;96774.72;;;17.43;100.00
68197;BME280;55019;49.382;11.358;2023-06-22T02:08:33;96768.66;;;17.42;100.00
68197;BME280;55019;49.382;11.358;2023-06-22T02:11:00;96770.06;;;17.39;100.00
68197;BME280;55019;49.382;11.358;2023-06-22T02:13:29;96767.03;;;17.29;100.00
68197;BME280;55019;49.382;11.358;2023-06-22T02:15:56;96773.09;;;17.36;100.00
68197;BME280;55019;49.382;11.358;2023-06-22T02:18:22;96770.88;;;17.33;100.00
68197;BME280;55019;49.382;11.358;2023-06-22T02:20:47;96767.06;;;17.35;100.00
68197;BME280;55019;49.382;11.358;2023-06-22T02:23:13;96775.47;;;17.31;100.00
68197;BME280;55019;49.382;11.358;2023-06-22T02:25:39;96768.88;;;17.35;100.00
68197;BME280;55019;49.382;11.358;2023-06-22T02:28:05;96763.03;;;17.33;100.00
68197;BME280;55019;49.382;11.358;2023-06-22T02:30:31;96764.66;;;17.34;100.00
68197;BME280;55019;49.382;11.358;2023-06-22T02:32:59;96768.28;;;17.39;100.00
68197;BME280;55019;49.382;11.358;2023-06-22T02:35:26;96767.06;;;17.35;100.00
68197;BME280;55019;49.382;11.358;2023-06-22T02:37:51;96774.69;;;17.37;100.00
68197;BME280;55019;49.382;11.358;2023-06-22T02:40:17;96776.66;;;17.28;100.00
68197;BME280;55019;49.382;11.358;2023-06-22T02:42:43;96778.91;;;17.38;100.00
68197;BME280;55019;49.382;11.358;2023-06-22T02:45:09;96772.69;;;17.39;100.00
68197;BME280;55019;49.382;11.358;2023-06-22T02:47:35;96774.69;;;17.37;100.00
68197;BME280;55019;49.382;11.358;2023-06-22T02:50:01;96772.44;;;17.27;100.00
68197;BME280;55019;49.382;11.358;2023-06-22T02:52:30;96766.69;;;17.38;100.00
68197;BME280;55019;49.382;11.358;2023-06-22T02:54:56;96768.69;;;17.36;100.00
68197;BME280;55019;49.382;11.358;2023-06-22T02:57:22;96791.59;;;17.47;100.00
68197;BME280;55019;49.382;11.358;2023-06-22T02:59:48;96806.81;;;17.31;100.00
68197;BME280;55019;49.382;11.358;2023-06-22T03:02:15;96811.03;;;17.32;100.00
68197;BME280;55019;49.382;11.358;2023-06-22T03:04:41;96810.44;;;17.30;100.00
68197;BME280;55019;49.382;11.358;2023-06-22T03:07:11;96838.53;;;17.21;100.00
68197;BME280;55019;49.382;11.358;2023-06-22T03:09:37;96865.94;;;17.44;100.00
68197;BME280;55019;49.382;11.358;2023-06-22T03:12:04;96880.63;;;17.52;100.00
68197;BME280;55019;49.382;11.358;2023-06-22T03:14:40;96871.97;;;17.45;100.00
68197;BME280;55019;49.382;11.358;2023-06-22T03:17:06;96881.00;;;17.49;100.00
68197;BME280;55019;49.382;11.358;2023-06-22T03:19:32;96875.00;;;17.61;100.00
68197;BME280;55019;49.382;11.358;2023-06-22T03:21:59;96871.59;;;17.67;100.00
68197;BME280;55019;49.382;11.358;2023-06-22T03:24:25;96882.06;;;17.67;100.00
68197;BME280;55019;49.382;11.358;2023-06-22T03:26:55;96880.44;;;17.66;100.00
68197;BME280;55019;49.382;11.358;2023-06-22T03:29:22;96882.84;;;17.68;100.00
68197;BME280;55019;49.382;11.358;2023-06-22T03:31:49;96869.78;;;17.74;100.00
68197;BME280;55019;49.382;11.358;2023-06-22T03:34:19;96874.00;;;17.82;100.00
68197;BME280;55019;49.382;11.358;2023-06-22T03:36:45;96869.22;;;17.92;100.00
68197;BME280;55019;49.382;11.358;2023-06-22T03:39:11;96865.78;;;17.91;100.00
68197;BME280;55019;49.382;11.358;2023-06-22T03:41:40;96868.38;;;17.85;100.00
68197;BME280;55019;49.382;11.358;2023-06-22T03:44:06;96853.69;;;17.84;100.00
68197;BME280;55019;49.382;11.358;2023-06-22T03:46:32;96848.69;;;17.69;100.00
68197;BME280;55019;49.382;11.358;2023-06-22T03:48:57;96853.94;;;17.89;100.00
68197;BME280;55019;49.382;11.358;2023-06-22T03:51:26;96861.16;;;17.80;100.00
68197;BME280;55019;49.382;11.358;2023-06-22T03:53:52;96843.84;;;17.73;100.00
68197;BME280;55019;49.382;11.358;2023-06-22T03:56:18;96852.50;;;17.67;100.00
68197;BME280;55019;49.382;11.358;2023-06-22T03:58:46;96833.41;;;17.79;100.00
68197;BME280;55019;49.382;11.358;2023-06-22T04:01:12;96830.38;;;17.82;100.00
68197;BME280;55019;49.382;11.358;2023-06-22T04:03:38;96839.81;;;17.96;100.00
68197;BME280;55019;49.382;11.358;2023-06-22T04:06:04;96836.44;;;17.96;100.00
68197;BME280;55019;49.382;11.358;2023-06-22T04:08:30;96835.81;;;18.13;100.00
68197;BME280;55019;49.382;11.358;2023-06-22T04:10:56;96833.41;;;17.92;100.00
68197;BME280;55019;49.382;11.358;2023-06-22T04:13:22;96816.94;;;17.72;100.00
68197;BME280;55019;49.382;11.358;2023-06-22T04:15:47;96801.06;;;17.67;100.00
68197;BME280;55019;49.382;11.358;2023-06-22T04:18:14;96800.44;;;17.78;100.00
68197;BME280;55019;49.382;11.358;2023-06-22T04:20:43;96814.91;;;17.94;100.00
68197;BME280;55019;49.382;11.358;2023-06-22T04:23:12;96816.91;;;17.98;100.00
68197;BME280;55019;49.382;11.358;2023-06-22T04:25:39;96805.22;;;18.07;100.00
68197;BME280;55019;49.382;11.358;2023-06-22T04:28:05;96795.16;;;18.04;100.00
68197;BME280;55019;49.382;11.358;2023-06-22T04:30:32;96804.44;;;18.07;100.00
68197;BME280;55019;49.382;11.358;2023-06-22T04:32:58;96807.22;;;18.18;100.00
68197;BME280;55019;49.382;11.358;2023-06-22T04:35:24;96795.13;;;18.43;100.00
68197;BME280;55019;49.382;11.358;2023-06-22T04:37:50;96789.88;;;18.37;100.00
68197;BME280;55019;49.382;11.358;2023-06-22T04:40:23;96785.88;;;18.41;100.00
68197;BME280;55019;49.382;11.358;2023-06-22T04:42:48;96788.91;;;18.38;100.00
68197;BME280;55019;49.382;11.358;2023-06-22T04:45:20;96768.78;;;18.38;100.00
68197;BME280;55019;49.382;11.358;2023-06-22T04:47:46;96762.06;;;18.55;100.00
68197;BME280;55019;49.382;11.358;2023-06-22T04:50:12;96754.84;;;18.44;100.00
68197;BME280;55019;49.382;11.358;2023-06-22T04:52:38;96753.25;;;18.43;100.00
68197;BME280;55019;49.382;11.358;2023-06-22T04:55:04;96763.72;;;18.43;100.00
68197;BME280;55019;49.382;11.358;2023-06-22T04:57:30;96760.16;;;18.31;100.00
68197;BME280;55019;49.382;11.358;2023-06-22T05:00:00;96767.69;;;18.59;100.00
68197;BME280;55019;49.382;11.358;2023-06-22T05:02:41;96762.03;;;18.68;100.00
68197;BME280;55019;49.382;11.358;2023-06-22T05:05:07;96749.88;;;18.80;100.00
68197;BME280;55019;49.382;11.358;2023-06-22T05:07:33;96742.19;;;18.85;100.00
68197;BME280;55019;49.382;11.358;2023-06-22T05:10:00;96757.91;;;18.85;100.00
68197;BME280;55019;49.382;11.358;2023-06-22T05:12:27;96758.47;;;18.93;100.00
68197;BME280;55019;49.382;11.358;2023-06-22T05:14:54;96747.25;;;19.11;100.00
68197;BME280;55019;49.382;11.358;2023-06-22T05:17:19;96738.38;;;19.18;100.00
68197;BME280;55019;49.382;11.358;2023-06-22T05:19:45;96746.38;;;19.30;100.00
68197;BME280;55019;49.382;11.358;2023-06-22T05:22:17;96752.94;;;19.39;100.00
68197;BME280;55019;49.382;11.358;2023-06-22T05:24:42;96757.16;;;19.40;100.00
68197;BME280;55019;49.382;11.358;2023-06-22T05:27:09;96746.91;;;19.63;100.00
68197;BME280;55019;49.382;11.358;2023-06-22T05:29:38;96736.16;;;19.71;100.00
68197;BME280;55019;49.382;11.358;2023-06-22T05:32:04;96751.19;;;19.57;100.00
68197;BME280;55019;49.382;11.358;2023-06-22T05:34:31;96750.06;;;19.71;100.00
68197;BME280;55019;49.382;11.358;2023-06-22T05:36:56;96751.50;;;19.67;100.00
68197;BME280;55019;49.382;11.358;2023-06-22T05:39:24;96745.78;;;20.01;100.00
68197;BME280;55019;49.382;11.358;2023-06-22T05:41:51;96752.53;;;20.09;100.00
68197;BME280;55019;49.382;11.358;2023-06-22T05:44:17;96746.41;;;20.15;100.00
68197;BME280;55019;49.382;11.358;2023-06-22T05:46:44;96763.34;;;20.19;100.00
68197;BME280;55019;49.382;11.358;2023-06-22T05:49:13;96757.53;;;20.17;100.00
68197;BME280;55019;49.382;11.358;2023-06-22T05:51:39;96751.16;;;20.24;99.99
68197;BME280;55019;49.382;11.358;2023-06-22T05:54:05;96738.28;;;20.23;100.00
68197;BME280;55019;49.382;11.358;2023-06-22T05:56:31;96735.13;;;20.32;100.00
68197;BME280;55019;49.382;11.358;2023-06-22T05:58:57;96732.81;;;20.42;99.64
68197;BME280;55019;49.382;11.358;2023-06-22T06:01:22;96732.38;;;20.45;98.63
68197;BME280;55019;49.382;11.358;2023-06-22T06:03:48;96729.06;;;20.49;97.25
68197;BME280;55019;49.382;11.358;2023-06-22T06:06:18;96735.75;;;20.63;97.65
68197;BME280;55019;49.382;11.358;2023-06-22T06:08:48;96723.94;;;20.72;95.68
68197;BME280;55019;49.382;11.358;2023-06-22T06:11:14;96737.22;;;20.77;95.34
68197;BME280;55019;49.382;11.358;2023-06-22T06:13:40;96745.06;;;20.95;94.80
68197;BME280;55019;49.382;11.358;2023-06-22T06:16:05;96734.69;;;21.00;93.17
68197;BME280;55019;49.382;11.358;2023-06-22T06:18:31;96719.19;;;21.10;92.70
68197;BME280;55019;49.382;11.358;2023-06-22T06:20:57;96725.97;;;21.29;93.66
68197;BME280;55019;49.382;11.358;2023-06-22T06:23:23;96726.31;;;21.33;94.52
68197;BME280;55019;49.382;11.358;2023-06-22T06:25:48;96735.03;;;21.45;92.50
68197;BME280;55019;49.382;11.358;2023-06-22T06:28:14;96728.28;;;21.37;91.68
68197;BME280;55019;49.382;11.358;2023-06-22T06:30:40;96725.19;;;21.40;94.18
68197;BME280;55019;49.382;11.358;2023-06-22T06:33:06;96727.66;;;21.65;91.37
68197;BME280;55019;49.382;11.358;2023-06-22T06:35:34;96721.38;;;21.77;89.65
68197;BME280;55019;49.382;11.358;2023-06-22T06:38:00;96713.03;;;21.80;89.01
68197;BME280;55019;49.382;11.358;2023-06-22T06:40:26;96721.94;;;22.02;88.52
68197;BME280;55019;49.382;11.358;2023-06-22T06:42:51;96714.03;;;22.13;86.31
68197;BME280;55019;49.382;11.358;2023-06-22T06:45:18;96719.94;;;22.32;87.03
68197;BME280;55019;49.382;11.358;2023-06-22T06:47:44;96716.50;;;22.31;85.17
68197;BME280;55019;49.382;11.358;2023-06-22T06:50:10;96726.69;;;22.39;82.18
68197;BME280;55019;49.382;11.358;2023-06-22T06:52:37;96721.59;;;22.61;82.47
68197;BME280;55019;49.382;11.358;2023-06-22T06:55:03;96715.53;;;22.60;83.15
68197;BME280;55019;49.382;11.358;2023-06-22T06:57:38;96710.88;;;22.51;81.91
68197;BME280;55019;49.382;11.358;2023-06-22T07:00:05;96713.59;;;22.56;81.45
68197;BME280;55019;49.382;11.358;2023-06-22T07:02:35;96705.47;;;22.57;80.22
68197;BME280;55019;49.382;11.358;2023-06-22T07:05:01;96697.06;;;22.72;79.99
68197;BME280;55019;49.382;11.358;2023-06-22T07:07:30;96709.88;;;22.80;79.28
68197;BME280;55019;49.382;11.358;2023-06-22T07:09:58;96686.06;;;22.75;77.15
68197;BME280;55019;49.382;11.358;2023-06-22T07:12:24;96696.78;;;23.13;79.37
68197;BME280;55019;49.382;11.358;2023-06-22T07:14:51;96690.97;;;23.27;77.75
68197;BME280;55019;49.382;11.358;2023-06-22T07:17:17;96694.00;;;23.36;76.61
68197;BME280;55019;49.382;11.358;2023-06-22T07:19:43;96695.13;;;23.40;73.78
68197;BME280;55019;49.382;11.358;2023-06-22T07:22:09;96686.97;;;23.57;74.67
68197;BME280;55019;49.382;11.358;2023-06-22T07:24:34;96684.38;;;23.79;74.32
68197;BME280;55019;49.382;11.358;2023-06-22T07:27:02;96686.31;;;24.00;71.52
68197;BME280;55019;49.382;11.358;2023-06-22T07:29:29;96689.66;;;23.95;71.70
68197;BME280;55019;49.382;11.358;2023-06-22T07:31:55;96682.00;;;24.15;70.40
68197;BME280;55019;49.382;11.358;2023-06-22T07:34:22;96692.34;;;24.60;69.73
68197;BME280;55019;49.382;11.358;2023-06-22T07:36:48;96688.84;;;24.54;68.88
68197;BME280;55019;49.382;11.358;2023-06-22T07:39:14;96692.38;;;24.86;68.97
68197;BME280;55019;49.382;11.358;2023-06-22T07:41:40;96682.34;;;24.88;68.51
68197;BME280;55019;49.382;11.358;2023-06-22T07:44:09;96679.38;;;25.11;68.35
68197;BME280;55019;49.382;11.358;2023-06-22T07:46:34;96680.13;;;25.28;67.04
68197;BME280;55019;49.382;11.358;2023-06-22T07:49:01;96675.47;;;25.13;65.45
68197;BME280;55019;49.382;11.358;2023-06-22T07:51:28;96684.78;;;25.21;66.40
68197;BME280;55019;49.382;11.358;2023-06-22T07:53:54;96680.97;;;25.38;64.89
68197;BME280;55019;49.382;11.358;2023-06-22T07:56:20;96695.06;;;25.44;60.81
68197;BME280;55019;49.382;11.358;2023-06-22T07:58:47;96695.47;;;25.31;62.95
68197;BME280;55019;49.382;11.358;2023-06-22T08:01:16;96677.13;;;25.51;64.59
68197;BME280;55019;49.382;11.358;2023-06-22T08:03:43;96675.28;;;25.88;61.86
68197;BME280;55019;49.382;11.358;2023-06-22T08:06:09;96669.53;;;26.01;59.48
68197;BME280;55019;49.382;11.358;2023-06-22T08:08:36;96667.31;;;25.83;59.13
68197;BME280;55019;49.382;11.358;2023-06-22T08:11:01;96683.97;;;26.30;61.78
68197;BME280;55019;49.382;11.358;2023-06-22T08:13:27;96684.09;;;26.55;59.75
68197;BME280;55019;49.382;11.358;2023-06-22T08:15:55;96678.09;;;26.99;57.90
68197;BME280;55019;49.382;11.358;2023-06-22T08:18:23;96685.78;;;26.80;55.67
68197;BME280;55019;49.382;11.358;2023-06-22T08:20:49;96679.69;;;26.90;57.73
68197;BME280;55019;49.382;11.358;2023-06-22T08:23:15;96682.31;;;26.75;57.88
68197;BME280;55019;49.382;11.358;2023-06-22T08:25:44;96688.06;;;26.52;56.39
68197;BME280;55019;49.382;11.358;2023-06-22T08:28:10;96686.78;;;26.74;56.35
68197;BME280;55019;49.382;11.358;2023-06-22T08:30:35;96673.31;;;26.96;57.24
68197;BME280;55019;49.382;11.358;2023-06-22T08:33:02;96655.88;;;27.60;56.33
68197;BME280;55019;49.382;11.358;2023-06-22T08:35:28;96666.72;;;27.68;52.60
68197;BME280;55019;49.382;11.358;2023-06-22T08:37:54;96679.22;;;27.53;51.13
68197;BME280;55019;49.382;11.358;2023-06-22T08:40:22;96674.06;;;28.26;55.91
68197;BME280;55019;49.382;11.358;2023-06-22T08:42:48;96673.25;;;28.35;51.90
68197;BME280;55019;49.382;11.358;2023-06-22T08:45:15;96675.41;;;28.92;54.11
68197;BME280;55019;49.382;11.358;2023-06-22T08:47:41;96673.53;;;28.29;51.45
68197;BME280;55019;49.382;11.358;2023-06-22T08:50:08;96676.25;;;28.04;50.58
68197;BME280;55019;49.382;11.358;2023-06-22T08:52:35;96675.47;;;28.72;51.04
68197;BME280;55019;49.382;11.358;2023-06-22T08:55:01;96669.34;;;29.20;49.52
68197;BME280;55019;49.382;11.358;2023-06-22T08:57:27;96682.88;;;29.62;48.29
68197;BME280;55019;49.382;11.358;2023-06-22T08:59:53;96677.41;;;29.76;46.88
68197;BME280;55019;49.382;11.358;2023-06-22T09:02:19;96668.50;;;29.63;49.74
68197;BME280;55019;49.382;11.358;2023-06-22T09:04:48;96667.66;;;29.34;47.43
68197;BME280;55019;49.382;11.358;2023-06-22T09:07:24;96679.97;;;29.25;48.23
68197;BME280;55019;49.382;11.358;2023-06-22T09:09:51;96671.50;;;29.18;49.09
68197;BME280;55019;49.382;11.358;2023-06-22T09:12:19;96667.69;;;28.85;47.63
68197;BME280;55019;49.382;11.358;2023-06-22T09:14:46;96665.06;;;29.24;48.60
68197;BME280;55019;49.382;11.358;2023-06-22T09:17:15;96665.56;;;28.92;47.86
68197;BME280;55019;49.382;11.358;2023-06-22T09:19:40;96666.53;;;29.45;48.30
68197;BME280;55019;49.382;11.358;2023-06-22T09:22:07;96673.97;;;29.76;48.37
68197;BME280;55019;49.382;11.358;2023-06-22T09:24:33;96658.03;;;29.99;45.00
68197;BME280;55019;49.382;11.358;2023-06-22T09:26:58;96665.88;;;30.61;43.30
68197;BME280;55019;49.382;11.358;2023-06-22T09:29:24;96659.81;;;30.74;44.11
68197;BME280;55019;49.382;11.358;2023-06-22T09:31:50;96657.69;;;31.13;45.55
68197;BME280;55019;49.382;11.358;2023-06-22T09:34:16;96647.72;;;30.16;44.57
68197;BME280;55019;49.382;11.358;2023-06-22T09:36:46;96633.09;;;30.37;43.07
68197;BME280;55019;49.382;11.358;2023-06-22T09:39:12;96642.69;;;30.15;44.67
68197;BME280;55019;49.382;11.358;2023-06-22T09:41:38;96627.34;;;29.50;45.31
68197;BME280;55019;49.382;11.358;2023-06-22T09:44:04;96624.31;;;29.62;44.45
68197;BME280;55019;49.382;11.358;2023-06-22T09:46:29;96626.84;;;30.23;43.99
68197;BME280;55019;49.382;11.358;2023-06-22T09:48:55;96616.28;;;30.60;43.87
68197;BME280;55019;49.382;11.358;2023-06-22T09:51:23;96627.88;;;31.06;43.37
68197;BME280;55019;49.382;11.358;2023-06-22T09:53:50;96614.81;;;30.49;43.98
68197;BME280;55019;49.382;11.358;2023-06-22T09:56:16;96620.38;;;30.71;43.98
68197;BME280;55019;49.382;11.358;2023-06-22T09:58:42;96606.16;;;30.15;43.82
68197;BME280;55019;49.382;11.358;2023-06-22T10:01:08;96609.16;;;30.32;43.86
68197;BME280;55019;49.382;11.358;2023-06-22T10:03:34;96608.84;;;30.57;41.59
68197;BME280;55019;49.382;11.358;2023-06-22T10:06:00;96592.56;;;30.59;41.79
68197;BME280;55019;49.382;11.358;2023-06-22T10:08:25;96603.13;;;30.45;42.26
68197;BME280;55019;49.382;11.358;2023-06-22T10:10:51;96581.81;;;30.45;42.95
68197;BME280;55019;49.382;11.358;2023-06-22T10:13:17;96585.69;;;31.08;43.00
68197;BME280;55019;49.382;11.358;2023-06-22T10:15:43;96579.69;;;31.48;43.96
68197;BME280;55019;49.382;11.358;2023-06-22T10:18:15;96578.97;;;31.11;41.74
68197;BME280;55019;49.382;11.358;2023-06-22T10:20:42;96583.88;;;31.04;45.47
68197;BME280;55019;49.382;11.358;2023-06-22T10:23:08;96578.50;;;31.54;41.61
68197;BME280;55019;49.382;11.358;2023-06-22T10:25:34;96587.09;;;32.23;42.15
68197;BME280;55019;49.382;11.358;2023-06-22T10:28:00;96578.72;;;32.52;40.10
68197;BME280;55019;49.382;11.358;2023-06-22T10:30:29;96577.53;;;32.58;38.75
68197;BME280;55019;49.382;11.358;2023-06-22T10:32:55;96578.88;;;32.82;38.76
68197;BME280;55019;49.382;11.358;2023-06-22T10:35:21;96568.97;;;32.20;38.27
68197;BME280;55019;49.382;11.358;2023-06-22T10:37:48;96567.25;;;30.93;40.33
68197;BME280;55019;49.382;11.358;2023-06-22T10:40:15;96563.41;;;31.31;39.83
68197;BME280;55019;49.382;11.358;2023-06-22T10:42:41;96563.72;;;32.02;39.66
68197;BME280;55019;49.382;11.358;2023-06-22T10:45:08;96565.13;;;32.62;38.80
68197;BME280;55019;49.382;11.358;2023-06-22T10:47:34;96568.00;;;33.00;38.55
68197;BME280;55019;49.382;11.358;2023-06-22T10:50:01;96572.13;;;33.28;35.80
68197;BME280;55019;49.382;11.358;2023-06-22T10:52:27;96566.25;;;32.83;37.06
68197;BME280;55019;49.382;11.358;2023-06-22T10:54:53;96564.69;;;33.47;38.38
68197;BME280;55019;49.382;11.358;2023-06-22T10:57:19;96573.22;;;33.88;36.32
68197;BME280;55019;49.382;11.358;2023-06-22T10:59:45;96591.44;;;34.08;36.85
68197;BME280;55019;49.382;11.358;2023-06-22T11:02:11;96587.88;;;33.82;36.05
68197;BME280;55019;49.382;11.358;2023-06-22T11:04:36;96581.94;;;34.49;36.58
68197;BME280;55019;49.382;11.358;2023-06-22T11:07:05;96587.34;;;34.02;37.24
68197;BME280;55019;49.382;11.358;2023-06-22T11:09:34;96599.25;;;32.91;36.47
68197;BME280;55019;49.382;11.358;2023-06-22T11:12:04;96602.19;;;33.47;38.80
68197;BME280;55019;49.382;11.358;2023-06-22T11:14:31;96606.31;;;33.31;36.36
68197;BME280;55019;49.382;11.358;2023-06-22T11:16:59;96615.94;;;33.54;34.49
68197;BME280;55019;49.382;11.358;2023-06-22T11:19:25;96598.50;;;33.65;35.88
68197;BME280;55019;49.382;11.358;2023-06-22T11:21:51;96587.63;;;34.48;33.59
68197;BME280;55019;49.382;11.358;2023-06-22T11:24:17;96597.81;;;33.82;35.56
68197;BME280;55019;49.382;11.358;2023-06-22T11:26:43;96586.00;;;33.30;34.82
68197;BME280;55019;49.382;11.358;2023-06-22T11:29:09;96584.03;;;32.65;37.16
68197;BME280;55019;49.382;11.358;2023-06-22T11:31:35;96584.38;;;32.85;37.80
68197;BME280;55019;49.382;11.358;2023-06-22T11:34:01;96586.34;;;33.37;35.54
68197;BME280;55019;49.382;11.358;2023-06-22T11:36:28;96570.75;;;32.74;36.32
68197;BME280;55019;49.382;11.358;2023-06-22T11:38:54;96553.81;;;32.78;36.40
68197;BME280;55019;49.382;11.358;2023-06-22T11:41:20;96566.69;;;33.42;35.58
68197;BME280;55019;49.382;11.358;2023-06-22T11:43:46;96563.13;;;33.24;36.52
68197;BME280;55019;49.382;11.358;2023-06-22T11:46:12;96551.78;;;32.83;36.03
68197;BME280;55019;49.382;11.358;2023-06-22T11:48:38;96559.06;;;33.27;36.08
68197;BME280;55019;49.382;11.358;2023-06-22T11:51:04;96553.03;;;34.21;37.01
68197;BME280;55019;49.382;11.358;2023-06-22T11:53:31;96523.13;;;33.58;35.40
68197;BME280;55019;49.382;11.358;2023-06-22T11:55:57;96535.69;;;34.44;36.13
68197;BME280;55019;49.382;11.358;2023-06-22T11:58:26;96533.50;;;33.82;34.52
68197;BME280;55019;49.382;11.358;2023-06-22T12:00:51;96529.41;;;34.74;34.75
68197;BME280;55019;49.382;11.358;2023-06-22T12:03:18;96522.63;;;34.93;32.54
68197;BME280;55019;49.382;11.358;2023-06-22T12:05:43;96532.38;;;34.30;34.22
68197;BME280;55019;49.382;11.358;2023-06-22T12:08:09;96509.84;;;34.48;35.69
68197;BME280;55019;49.382;11.358;2023-06-22T12:10:35;96511.41;;;34.49;33.30
68197;BME280;55019;49.382;11.358;2023-06-22T12:13:03;96499.72;;;34.20;34.44
68197;BME280;55019;49.382;11.358;2023-06-22T12:15:29;96503.84;;;34.68;35.75
68197;BME280;55019;49.382;11.358;2023-06-22T12:17:55;96490.19;;;34.05;35.15
68197;BME280;55019;49.382;11.358;2023-06-22T12:20:44;96487.50;;;34.14;34.85
68197;BME280;55019;49.382;11.358;2023-06-22T12:23:20;96498.31;;;34.31;34.86
68197;BME280;55019;49.382;11.358;2023-06-22T12:25:50;96478.47;;;33.84;35.78
68197;BME280;55019;49.382;11.358;2023-06-22T12:28:15;96474.09;;;34.05;34.77
68197;BME280;55019;49.382;11.358;2023-06-22T12:30:41;96462.44;;;34.01;36.55
68197;BME280;55019;49.382;11.358;2023-06-22T12:33:07;96463.81;;;33.82;34.85
68197;BME280;55019;49.382;11.358;2023-06-22T12:35:34;96454.78;;;33.69;34.59
68197;BME280;55019;49.382;11.358;2023-06-22T12:38:00;96459.63;;;34.57;34.26
68197;BME280;55019;49.382;11.358;2023-06-22T12:40:26;96442.69;;;33.89;35.83
68197;BME280;55019;49.382;11.358;2023-06-22T12:42:52;96422.06;;;33.11;36.51
68197;BME280;55019;49.382;11.358;2023-06-22T12:45:18;96418.09;;;33.39;37.85
68197;BME280;55019;49.382;11.358;2023-06-22T12:47:46;96433.44;;;33.56;36.80
68197;BME280;55019;49.382;11.358;2023-06-22T12:50:13;96423.84;;;33.63;35.06
68197;BME280;55019;49.382;11.358;2023-06-22T12:52:39;96436.84;;;33.78;35.26
68197;BME280;55019;49.382;11.358;2023-06-22T12:55:06;96430.25;;;34.01;34.46